sensor_id;sensor_type;location;lat;lon;timestamp;P1;durP1;ratioP1;P2;durP2;ratioP2
19089;SDS011;9677;50.656;13.064;2023-02-21T00:01:45;11.53;;;10.33;;
19089;SDS011;9677;50.656;13.064;2023-02-21T00:04:31;11.13;;;10.03;;
19089;SDS011;9677;50.656;13.064;2023-02-21T00:07:16;10.80;;;9.80;;
19089;SDS011;9677;50.656;13.064;2023-02-21T00:10:05;10.60;;;9.50;;
19089;SDS011;9677;50.656;13.064;2023-02-21T00:12:52;10.10;;;9.20;;
19089;SDS011;9677;50.656;13.064;2023-02-21T00:15:38;10.60;;;9.60;;
19089;SDS011;9677;50.656;13.064;2023-02-21T00:18:24;10.57;;;9.60;;
19089;SDS011;9677;50.656;13.064;2023-02-21T00:21:10;10.93;;;9.83;;
19089;SDS011;9677;50.656;13.064;2023-02-21T00:23:56;10.87;;;9.87;;
19089;SDS011;9677;50.656;13.064;2023-02-21T00:26:43;11.60;;;10.40;;
19089;SDS011;9677;50.656;13.064;2023-02-21T00:29:29;11.17;;;10.07;;
19089;SDS011;9677;50.656;13.064;2023-02-21T00:32:15;10.80;;;9.80;;
19089;SDS011;9677;50.656;13.064;2023-02-21T00:35:01;10.90;;;9.90;;
19089;SDS011;9677;50.656;13.064;2023-02-21T00:37:48;11.50;;;10.40;;
19089;SDS011;9677;50.656;13.064;2023-02-21T00:40:34;10.93;;;9.93;;
19089;SDS011;9677;50.656;13.064;2023-02-21T00:43:27;10.70;;;9.80;;
19089;SDS011;9677;50.656;13.064;2023-02-21T00:46:13;11.07;;;10.07;;
19089;SDS011;9677;50.656;13.064;2023-02-21T00:49:00;11.00;;;10.00;;
19089;SDS011;9677;50.656;13.064;2023-02-21T00:51:47;11.77;;;9.70;;
19089;SDS011;9677;50.656;13.064;2023-02-21T00:54:33;10.83;;;9.83;;
19089;SDS011;9677;50.656;13.064;2023-02-21T00:57:19;10.90;;;9.90;;
19089;SDS011;9677;50.656;13.064;2023-02-21T01:00:08;11.30;;;10.20;;
19089;SDS011;9677;50.656;13.064;2023-02-21T01:03:00;10.80;;;9.80;;
19089;SDS011;9677;50.656;13.064;2023-02-21T01:05:46;11.00;;;10.00;;
19089;SDS011;9677;50.656;13.064;2023-02-21T01:08:32;10.40;;;9.50;;
19089;SDS011;9677;50.656;13.064;2023-02-21T01:11:19;10.93;;;9.93;;
19089;SDS011;9677;50.656;13.064;2023-02-21T01:14:06;11.83;;;10.73;;
19089;SDS011;9677;50.656;13.064;2023-02-21T01:16:55;11.30;;;10.30;;
19089;SDS011;9677;50.656;13.064;2023-02-21T01:19:41;11.20;;;10.20;;
19089;SDS011;9677;50.656;13.064;2023-02-21T01:22:28;10.50;;;9.60;;
19089;SDS011;9677;50.656;13.064;2023-02-21T01:25:14;11.40;;;10.30;;
19089;SDS011;9677;50.656;13.064;2023-02-21T01:28:00;10.97;;;9.87;;
19089;SDS011;9677;50.656;13.064;2023-02-21T01:30:46;11.40;;;10.30;;
19089;SDS011;9677;50.656;13.064;2023-02-21T01:33:35;11.03;;;10.00;;
19089;SDS011;9677;50.656;13.064;2023-02-21T01:36:24;14.20;;;10.43;;
19089;SDS011;9677;50.656;13.064;2023-02-21T01:39:12;11.10;;;10.10;;
19089;SDS011;9677;50.656;13.064;2023-02-21T01:41:59;11.10;;;10.10;;
19089;SDS011;9677;50.656;13.064;2023-02-21T01:44:46;11.87;;;10.67;;
19089;SDS011;9677;50.656;13.064;2023-02-21T01:47:33;10.70;;;9.70;;
19089;SDS011;9677;50.656;13.064;2023-02-21T01:50:21;10.93;;;9.83;;
19089;SDS011;9677;50.656;13.064;2023-02-21T01:53:13;11.60;;;10.47;;
19089;SDS011;9677;50.656;13.064;2023-02-21T01:56:03;11.50;;;10.40;;
19089;SDS011;9677;50.656;13.064;2023-02-21T01:58:51;10.83;;;9.83;;
19089;SDS011;9677;50.656;13.064;2023-02-21T02:01:42;10.73;;;9.73;;
19089;SDS011;9677;50.656;13.064;2023-02-21T02:04:34;11.57;;;10.57;;
19089;SDS011;9677;50.656;13.064;2023-02-21T02:07:21;10.70;;;9.70;;
19089;SDS011;9677;50.656;13.064;2023-02-21T02:10:09;10.77;;;9.77;;
19089;SDS011;9677;50.656;13.064;2023-02-21T02:13:19;11.33;;;9.83;;
19089;SDS011;9677;50.656;13.064;2023-02-21T02:16:10;10.60;;;9.70;;
19089;SDS011;9677;50.656;13.064;2023-02-21T02:18:52;10.87;;;9.87;;
19089;SDS011;9677;50.656;13.064;2023-02-21T02:21:39;11.17;;;10.17;;
19089;SDS011;9677;50.656;13.064;2023-02-21T02:24:54;10.43;;;9.50;;
19089;SDS011;9677;50.656;13.064;2023-02-21T02:27:43;10.93;;;9.93;;
19089;SDS011;9677;50.656;13.064;2023-02-21T02:30:42;10.50;;;9.60;;
19089;SDS011;9677;50.656;13.064;2023-02-21T02:33:54;12.30;;;9.87;;
19089;SDS011;9677;50.656;13.064;2023-02-21T02:37:11;10.97;;;9.97;;
19089;SDS011;9677;50.656;13.064;2023-02-21T02:39:46;11.00;;;9.90;;
19089;SDS011;9677;50.656;13.064;2023-02-21T02:42:27;10.90;;;9.90;;
19089;SDS011;9677;50.656;13.064;2023-02-21T02:45:08;10.40;;;9.50;;
19089;SDS011;9677;50.656;13.064;2023-02-21T02:47:44;10.37;;;9.37;;
19089;SDS011;9677;50.656;13.064;2023-02-21T02:50:18;11.43;;;10.43;;
19089;SDS011;9677;50.656;13.064;2023-02-21T02:52:52;11.20;;;10.20;;
19089;SDS011;9677;50.656;13.064;2023-02-21T02:55:33;11.10;;;10.00;;
19089;SDS011;9677;50.656;13.064;2023-02-21T02:58:08;10.83;;;9.83;;
19089;SDS011;9677;50.656;13.064;2023-02-21T03:00:39;10.73;;;9.63;;
19089;SDS011;9677;50.656;13.064;2023-02-21T03:03:21;10.83;;;9.77;;
19089;SDS011;9677;50.656;13.064;2023-02-21T03:06:08;10.37;;;9.43;;
19089;SDS011;9677;50.656;13.064;2023-02-21T03:08:51;10.23;;;9.33;;
19089;SDS011;9677;50.656;13.064;2023-02-21T03:11:28;10.57;;;9.67;;
19089;SDS011;9677;50.656;13.064;2023-02-21T03:13:58;10.33;;;9.43;;
19089;SDS011;9677;50.656;13.064;2023-02-21T03:16:33;10.37;;;9.47;;
19089;SDS011;9677;50.656;13.064;2023-02-21T03:19:08;10.30;;;9.40;;
19089;SDS011;9677;50.656;13.064;2023-02-21T03:21:41;10.00;;;9.10;;
19089;SDS011;9677;50.656;13.064;2023-02-21T03:24:16;10.10;;;9.20;;
19089;SDS011;9677;50.656;13.064;2023-02-21T03:26:47;10.47;;;9.57;;
19089;SDS011;9677;50.656;13.064;2023-02-21T03:29:41;10.00;;;9.10;;
19089;SDS011;9677;50.656;13.064;2023-02-21T03:32:12;10.23;;;9.33;;
19089;SDS011;9677;50.656;13.064;2023-02-21T03:34:46;10.40;;;9.50;;
19089;SDS011;9677;50.656;13.064;2023-02-21T03:37:18;10.77;;;9.77;;
19089;SDS011;9677;50.656;13.064;2023-02-21T03:39:50;10.20;;;9.30;;
19089;SDS011;9677;50.656;13.064;2023-02-21T03:42:19;10.00;;;9.10;;
19089;SDS011;9677;50.656;13.064;2023-02-21T03:44:47;10.37;;;9.47;;
19089;SDS011;9677;50.656;13.064;2023-02-21T03:47:16;9.93;;;9.10;;
19089;SDS011;9677;50.656;13.064;2023-02-21T03:49:44;10.30;;;9.40;;
19089;SDS011;9677;50.656;13.064;2023-02-21T03:52:13;10.07;;;9.17;;
19089;SDS011;9677;50.656;13.064;2023-02-21T03:54:41;10.63;;;9.63;;
19089;SDS011;9677;50.656;13.064;2023-02-21T03:57:15;10.60;;;9.70;;
19089;SDS011;9677;50.656;13.064;2023-02-21T03:59:46;10.27;;;9.37;;
19089;SDS011;9677;50.656;13.064;2023-02-21T04:02:14;10.00;;;9.20;;
19089;SDS011;9677;50.656;13.064;2023-02-21T04:04:43;10.67;;;9.70;;
19089;SDS011;9677;50.656;13.064;2023-02-21T04:07:16;10.30;;;9.40;;
19089;SDS011;9677;50.656;13.064;2023-02-21T04:09:47;10.37;;;9.47;;
19089;SDS011;9677;50.656;13.064;2023-02-21T04:12:28;10.20;;;9.03;;
19089;SDS011;9677;50.656;13.064;2023-02-21T04:14:56;10.30;;;9.40;;
19089;SDS011;9677;50.656;13.064;2023-02-21T04:17:25;9.97;;;9.17;;
19089;SDS011;9677;50.656;13.064;2023-02-21T04:19:55;10.83;;;9.83;;
19089;SDS011;9677;50.656;13.064;2023-02-21T04:22:23;10.20;;;9.20;;
19089;SDS011;9677;50.656;13.064;2023-02-21T04:24:52;10.10;;;9.20;;
19089;SDS011;9677;50.656;13.064;2023-02-21T04:27:22;10.60;;;9.67;;
19089;SDS011;9677;50.656;13.064;2023-02-21T04:29:55;10.40;;;9.50;;
19089;SDS011;9677;50.656;13.064;2023-02-21T04:32:23;10.80;;;9.90;;
19089;SDS011;9677;50.656;13.064;2023-02-21T04:34:53;10.40;;;9.50;;
19089;SDS011;9677;50.656;13.064;2023-02-21T04:37:21;10.70;;;9.80;;
19089;SDS011;9677;50.656;13.064;2023-02-21T04:39:50;10.10;;;9.20;;
19089;SDS011;9677;50.656;13.064;2023-02-21T04:42:19;10.63;;;9.63;;
19089;SDS011;9677;50.656;13.064;2023-02-21T04:44:47;10.20;;;9.30;;
19089;SDS011;9677;50.656;13.064;2023-02-21T04:47:27;10.37;;;9.47;;
19089;SDS011;9677;50.656;13.064;2023-02-21T04:49:56;11.27;;;10.17;;
19089;SDS011;9677;50.656;13.064;2023-02-21T04:52:24;10.83;;;9.83;;
19089;SDS011;9677;50.656;13.064;2023-02-21T04:54:52;10.80;;;9.80;;
19089;SDS011;9677;50.656;13.064;2023-02-21T04:57:21;10.70;;;9.50;;
19089;SDS011;9677;50.656;13.064;2023-02-21T04:59:54;10.43;;;9.43;;
19089;SDS011;9677;50.656;13.064;2023-02-21T05:02:24;10.67;;;9.67;;
19089;SDS011;9677;50.656;13.064;2023-02-21T05:04:55;11.13;;;10.03;;
19089;SDS011;9677;50.656;13.064;2023-02-21T05:07:23;10.80;;;9.80;;
19089;SDS011;9677;50.656;13.064;2023-02-21T05:09:52;10.40;;;9.40;;
19089;SDS011;9677;50.656;13.064;2023-02-21T05:12:20;10.70;;;9.70;;
19089;SDS011;9677;50.656;13.064;2023-02-21T05:14:48;10.70;;;9.70;;
19089;SDS011;9677;50.656;13.064;2023-02-21T05:17:17;9.90;;;9.10;;
19089;SDS011;9677;50.656;13.064;2023-02-21T05:19:45;10.63;;;9.73;;
19089;SDS011;9677;50.656;13.064;2023-02-21T05:22:15;11.40;;;9.90;;
19089;SDS011;9677;50.656;13.064;2023-02-21T05:24:45;10.80;;;9.83;;
19089;SDS011;9677;50.656;13.064;2023-02-21T05:27:14;11.10;;;10.00;;
19089;SDS011;9677;50.656;13.064;2023-02-21T05:29:45;10.90;;;9.90;;
19089;SDS011;9677;50.656;13.064;2023-02-21T05:32:15;10.27;;;9.37;;
19089;SDS011;9677;50.656;13.064;2023-02-21T05:34:45;10.67;;;9.77;;
19089;SDS011;9677;50.656;13.064;2023-02-21T05:37:15;10.73;;;9.73;;
19089;SDS011;9677;50.656;13.064;2023-02-21T05:39:46;10.60;;;9.60;;
19089;SDS011;9677;50.656;13.064;2023-02-21T05:42:15;10.90;;;9.50;;
19089;SDS011;9677;50.656;13.064;2023-02-21T05:44:45;10.87;;;9.87;;
19089;SDS011;9677;50.656;13.064;2023-02-21T05:47:14;10.70;;;9.70;;
19089;SDS011;9677;50.656;13.064;2023-02-21T05:49:43;11.03;;;10.03;;
19089;SDS011;9677;50.656;13.064;2023-02-21T05:52:12;10.50;;;9.60;;
19089;SDS011;9677;50.656;13.064;2023-02-21T05:54:44;10.37;;;9.47;;
19089;SDS011;9677;50.656;13.064;2023-02-21T05:57:12;11.30;;;9.30;;
19089;SDS011;9677;50.656;13.064;2023-02-21T05:59:41;10.97;;;9.97;;
19089;SDS011;9677;50.656;13.064;2023-02-21T06:02:09;10.97;;;9.97;;
19089;SDS011;9677;50.656;13.064;2023-02-21T06:04:37;10.73;;;9.73;;
19089;SDS011;9677;50.656;13.064;2023-02-21T06:07:06;10.60;;;9.70;;
19089;SDS011;9677;50.656;13.064;2023-02-21T06:09:36;10.57;;;9.67;;
19089;SDS011;9677;50.656;13.064;2023-02-21T06:12:04;10.37;;;9.47;;
19089;SDS011;9677;50.656;13.064;2023-02-21T06:14:33;10.80;;;9.70;;
19089;SDS011;9677;50.656;13.064;2023-02-21T06:17:01;10.83;;;9.83;;
19089;SDS011;9677;50.656;13.064;2023-02-21T06:19:29;10.30;;;9.40;;
19089;SDS011;9677;50.656;13.064;2023-02-21T06:21:58;10.97;;;9.97;;
19089;SDS011;9677;50.656;13.064;2023-02-21T06:24:27;10.80;;;9.70;;
19089;SDS011;9677;50.656;13.064;2023-02-21T06:26:56;10.47;;;9.47;;
19089;SDS011;9677;50.656;13.064;2023-02-21T06:29:25;10.77;;;9.77;;
19089;SDS011;9677;50.656;13.064;2023-02-21T06:31:55;10.83;;;9.83;;
19089;SDS011;9677;50.656;13.064;2023-02-21T06:34:24;10.30;;;9.30;;
19089;SDS011;9677;50.656;13.064;2023-02-21T06:36:52;10.97;;;10.00;;
19089;SDS011;9677;50.656;13.064;2023-02-21T06:39:22;10.70;;;9.70;;
19089;SDS011;9677;50.656;13.064;2023-02-21T06:41:50;10.90;;;9.90;;
19089;SDS011;9677;50.656;13.064;2023-02-21T06:44:20;11.20;;;10.10;;
19089;SDS011;9677;50.656;13.064;2023-02-21T06:46:48;11.00;;;10.00;;
19089;SDS011;9677;50.656;13.064;2023-02-21T06:49:20;10.90;;;9.90;;
19089;SDS011;9677;50.656;13.064;2023-02-21T06:51:48;10.87;;;9.87;;
19089;SDS011;9677;50.656;13.064;2023-02-21T06:54:16;11.43;;;9.87;;
19089;SDS011;9677;50.656;13.064;2023-02-21T06:56:45;11.13;;;10.03;;
19089;SDS011;9677;50.656;13.064;2023-02-21T06:59:13;10.73;;;9.73;;
19089;SDS011;9677;50.656;13.064;2023-02-21T07:01:43;11.03;;;10.03;;
19089;SDS011;9677;50.656;13.064;2023-02-21T07:04:12;10.70;;;9.70;;
19089;SDS011;9677;50.656;13.064;2023-02-21T07:06:40;10.80;;;9.80;;
19089;SDS011;9677;50.656;13.064;2023-02-21T07:09:09;10.80;;;9.90;;
19089;SDS011;9677;50.656;13.064;2023-02-21T07:11:37;10.80;;;9.80;;
19089;SDS011;9677;50.656;13.064;2023-02-21T07:14:06;10.97;;;9.97;;
19089;SDS011;9677;50.656;13.064;2023-02-21T07:16:34;11.43;;;10.17;;
19089;SDS011;9677;50.656;13.064;2023-02-21T07:19:04;10.77;;;9.77;;
19089;SDS011;9677;50.656;13.064;2023-02-21T07:21:32;11.20;;;10.00;;
19089;SDS011;9677;50.656;13.064;2023-02-21T07:24:01;11.60;;;10.50;;
19089;SDS011;9677;50.656;13.064;2023-02-21T07:26:30;10.70;;;9.80;;
19089;SDS011;9677;50.656;13.064;2023-02-21T07:28:58;10.90;;;9.87;;
19089;SDS011;9677;50.656;13.064;2023-02-21T07:31:27;10.90;;;9.80;;
19089;SDS011;9677;50.656;13.064;2023-02-21T07:33:55;11.30;;;10.30;;
19089;SDS011;9677;50.656;13.064;2023-02-21T07:36:25;11.13;;;10.07;;
19089;SDS011;9677;50.656;13.064;2023-02-21T07:38:53;11.50;;;10.40;;
19089;SDS011;9677;50.656;13.064;2023-02-21T07:41:22;11.90;;;10.70;;
19089;SDS011;9677;50.656;13.064;2023-02-21T07:43:50;13.97;;;9.93;;
19089;SDS011;9677;50.656;13.064;2023-02-21T07:46:18;10.70;;;9.70;;
19089;SDS011;9677;50.656;13.064;2023-02-21T07:48:47;11.30;;;10.20;;
19089;SDS011;9677;50.656;13.064;2023-02-21T07:51:15;11.10;;;10.00;;
19089;SDS011;9677;50.656;13.064;2023-02-21T07:53:45;11.17;;;10.17;;
19089;SDS011;9677;50.656;13.064;2023-02-21T07:56:13;10.97;;;9.97;;
19089;SDS011;9677;50.656;13.064;2023-02-21T07:58:42;10.87;;;9.87;;
19089;SDS011;9677;50.656;13.064;2023-02-21T08:01:10;11.00;;;10.00;;
19089;SDS011;9677;50.656;13.064;2023-02-21T08:03:39;11.10;;;10.10;;
19089;SDS011;9677;50.656;13.064;2023-02-21T08:06:07;11.60;;;10.50;;
19089;SDS011;9677;50.656;13.064;2023-02-21T08:08:37;11.50;;;10.30;;
19089;SDS011;9677;50.656;13.064;2023-02-21T08:11:07;10.90;;;9.90;;
19089;SDS011;9677;50.656;13.064;2023-02-21T08:13:35;10.80;;;9.80;;
19089;SDS011;9677;50.656;13.064;2023-02-21T08:16:04;11.00;;;10.00;;
19089;SDS011;9677;50.656;13.064;2023-02-21T08:18:33;11.10;;;10.10;;
19089;SDS011;9677;50.656;13.064;2023-02-21T08:21:01;11.50;;;10.40;;
19089;SDS011;9677;50.656;13.064;2023-02-21T08:23:30;11.77;;;10.57;;
19089;SDS011;9677;50.656;13.064;2023-02-21T08:25:59;11.53;;;10.43;;
19089;SDS011;9677;50.656;13.064;2023-02-21T08:28:28;11.60;;;10.47;;
19089;SDS011;9677;50.656;13.064;2023-02-21T08:30:57;11.50;;;10.40;;
19089;SDS011;9677;50.656;13.064;2023-02-21T08:33:25;11.20;;;10.20;;
19089;SDS011;9677;50.656;13.064;2023-02-21T08:35:57;11.40;;;10.30;;
19089;SDS011;9677;50.656;13.064;2023-02-21T08:38:25;11.00;;;10.00;;
19089;SDS011;9677;50.656;13.064;2023-02-21T08:40:53;11.00;;;9.90;;
19089;SDS011;9677;50.656;13.064;2023-02-21T08:43:23;11.20;;;10.00;;
19089;SDS011;9677;50.656;13.064;2023-02-21T08:45:54;10.97;;;9.87;;
19089;SDS011;9677;50.656;13.064;2023-02-21T08:48:23;11.47;;;10.37;;
19089;SDS011;9677;50.656;13.064;2023-02-21T08:50:52;10.77;;;9.77;;
19089;SDS011;9677;50.656;13.064;2023-02-21T08:53:20;10.87;;;9.77;;
19089;SDS011;9677;50.656;13.064;2023-02-21T08:55:48;10.57;;;9.57;;
19089;SDS011;9677;50.656;13.064;2023-02-21T08:58:17;11.13;;;10.13;;
19089;SDS011;9677;50.656;13.064;2023-02-21T09:00:45;11.33;;;10.27;;
19089;SDS011;9677;50.656;13.064;2023-02-21T09:03:15;11.50;;;10.40;;
19089;SDS011;9677;50.656;13.064;2023-02-21T09:05:43;11.50;;;10.40;;
19089;SDS011;9677;50.656;13.064;2023-02-21T09:08:12;11.10;;;10.00;;
19089;SDS011;9677;50.656;13.064;2023-02-21T09:10:40;10.70;;;9.70;;
19089;SDS011;9677;50.656;13.064;2023-02-21T09:13:13;11.77;;;10.67;;
19089;SDS011;9677;50.656;13.064;2023-02-21T09:15:41;11.77;;;10.60;;
19089;SDS011;9677;50.656;13.064;2023-02-21T09:18:10;11.67;;;10.47;;
19089;SDS011;9677;50.656;13.064;2023-02-21T09:20:40;11.03;;;9.97;;
19089;SDS011;9677;50.656;13.064;2023-02-21T09:23:08;11.70;;;10.60;;
19089;SDS011;9677;50.656;13.064;2023-02-21T09:25:37;11.97;;;10.60;;
19089;SDS011;9677;50.656;13.064;2023-02-21T09:28:05;11.40;;;10.30;;
19089;SDS011;9677;50.656;13.064;2023-02-21T09:30:33;11.70;;;10.60;;
19089;SDS011;9677;50.656;13.064;2023-02-21T09:33:02;10.73;;;9.73;;
19089;SDS011;9677;50.656;13.064;2023-02-21T09:35:30;11.23;;;10.17;;
19089;SDS011;9677;50.656;13.064;2023-02-21T09:38:00;11.60;;;10.40;;
19089;SDS011;9677;50.656;13.064;2023-02-21T09:40:33;12.20;;;11.00;;
19089;SDS011;9677;50.656;13.064;2023-02-21T09:43:10;12.00;;;10.57;;
19089;SDS011;9677;50.656;13.064;2023-02-21T09:45:41;11.30;;;10.20;;
19089;SDS011;9677;50.656;13.064;2023-02-21T09:48:12;11.50;;;10.40;;
19089;SDS011;9677;50.656;13.064;2023-02-21T09:50:44;10.90;;;9.90;;
19089;SDS011;9677;50.656;13.064;2023-02-21T09:53:18;10.93;;;9.87;;
19089;SDS011;9677;50.656;13.064;2023-02-21T09:55:50;11.53;;;10.43;;
19089;SDS011;9677;50.656;13.064;2023-02-21T09:58:23;12.00;;;10.70;;
19089;SDS011;9677;50.656;13.064;2023-02-21T10:00:52;12.00;;;10.70;;
19089;SDS011;9677;50.656;13.064;2023-02-21T10:03:29;11.90;;;10.70;;
19089;SDS011;9677;50.656;13.064;2023-02-21T10:06:16;11.60;;;10.40;;
19089;SDS011;9677;50.656;13.064;2023-02-21T10:08:58;12.27;;;11.07;;
19089;SDS011;9677;50.656;13.064;2023-02-21T10:11:35;11.90;;;10.70;;
19089;SDS011;9677;50.656;13.064;2023-02-21T10:14:16;12.20;;;11.00;;
19089;SDS011;9677;50.656;13.064;2023-02-21T10:16:58;12.03;;;10.83;;
19089;SDS011;9677;50.656;13.064;2023-02-21T10:19:33;12.23;;;11.03;;
19089;SDS011;9677;50.656;13.064;2023-02-21T10:22:09;11.53;;;10.40;;
19089;SDS011;9677;50.656;13.064;2023-02-21T10:24:43;12.33;;;11.10;;
19089;SDS011;9677;50.656;13.064;2023-02-21T10:27:14;11.70;;;10.60;;
19089;SDS011;9677;50.656;13.064;2023-02-21T10:29:45;12.00;;;10.70;;
19089;SDS011;9677;50.656;13.064;2023-02-21T10:32:21;12.30;;;11.10;;
19089;SDS011;9677;50.656;13.064;2023-02-21T10:34:51;13.73;;;10.67;;
19089;SDS011;9677;50.656;13.064;2023-02-21T10:37:24;13.90;;;11.17;;
19089;SDS011;9677;50.656;13.064;2023-02-21T10:40:03;12.20;;;11.00;;
19089;SDS011;9677;50.656;13.064;2023-02-21T10:42:43;11.60;;;10.50;;
19089;SDS011;9677;50.656;13.064;2023-02-21T10:45:16;11.97;;;10.50;;
19089;SDS011;9677;50.656;13.064;2023-02-21T10:47:48;11.63;;;10.53;;
19089;SDS011;9677;50.656;13.064;2023-02-21T10:53:23;11.80;;;10.70;;
19089;SDS011;9677;50.656;13.064;2023-02-21T10:56:17;11.27;;;10.17;;
19089;SDS011;9677;50.656;13.064;2023-02-21T10:58:51;11.30;;;10.10;;
19089;SDS011;9677;50.656;13.064;2023-02-21T11:01:30;10.70;;;9.70;;
19089;SDS011;9677;50.656;13.064;2023-02-21T11:04:03;11.47;;;10.40;;
19089;SDS011;9677;50.656;13.064;2023-02-21T11:06:35;11.67;;;10.47;;
19089;SDS011;9677;50.656;13.064;2023-02-21T11:12:01;11.67;;;10.57;;
19089;SDS011;9677;50.656;13.064;2023-02-21T11:14:33;11.27;;;10.17;;
19089;SDS011;9677;50.656;13.064;2023-02-21T11:17:06;11.30;;;10.20;;
19089;SDS011;9677;50.656;13.064;2023-02-21T11:19:43;13.30;;;10.90;;
19089;SDS011;9677;50.656;13.064;2023-02-21T11:22:17;12.00;;;10.90;;
19089;SDS011;9677;50.656;13.064;2023-02-21T11:24:54;11.00;;;9.90;;
19089;SDS011;9677;50.656;13.064;2023-02-21T11:27:30;11.27;;;10.17;;
19089;SDS011;9677;50.656;13.064;2023-02-21T11:30:00;11.60;;;10.40;;
19089;SDS011;9677;50.656;13.064;2023-02-21T11:32:32;11.03;;;9.93;;
19089;SDS011;9677;50.656;13.064;2023-02-21T11:35:06;11.10;;;10.00;;
19089;SDS011;9677;50.656;13.064;2023-02-21T11:37:50;11.33;;;10.20;;
19089;SDS011;9677;50.656;13.064;2023-02-21T11:40:22;11.37;;;10.27;;
19089;SDS011;9677;50.656;13.064;2023-02-21T11:43:13;10.90;;;9.80;;
19089;SDS011;9677;50.656;13.064;2023-02-21T11:45:54;11.00;;;10.00;;
19089;SDS011;9677;50.656;13.064;2023-02-21T11:48:46;16.80;;;9.97;;
19089;SDS011;9677;50.656;13.064;2023-02-21T11:51:30;11.10;;;10.00;;
19089;SDS011;9677;50.656;13.064;2023-02-21T11:54:05;11.73;;;10.30;;
19089;SDS011;9677;50.656;13.064;2023-02-21T11:56:37;11.37;;;10.20;;
19089;SDS011;9677;50.656;13.064;2023-02-21T11:59:31;11.10;;;10.00;;
19089;SDS011;9677;50.656;13.064;2023-02-21T12:05:22;10.53;;;9.53;;
19089;SDS011;9677;50.656;13.064;2023-02-21T12:08:09;10.37;;;9.47;;
19089;SDS011;9677;50.656;13.064;2023-02-21T12:11:02;10.80;;;9.80;;
19089;SDS011;9677;50.656;13.064;2023-02-21T12:13:54;10.20;;;9.30;;
19089;SDS011;9677;50.656;13.064;2023-02-21T12:16:48;10.03;;;9.13;;
19089;SDS011;9677;50.656;13.064;2023-02-21T12:19:35;10.90;;;9.90;;
19089;SDS011;9677;50.656;13.064;2023-02-21T12:22:26;10.47;;;9.47;;
19089;SDS011;9677;50.656;13.064;2023-02-21T12:25:14;10.50;;;9.50;;
19089;SDS011;9677;50.656;13.064;2023-02-21T12:27:50;10.17;;;9.27;;
19089;SDS011;9677;50.656;13.064;2023-02-21T12:30:39;10.70;;;9.70;;
19089;SDS011;9677;50.656;13.064;2023-02-21T12:33:35;11.00;;;9.90;;
19089;SDS011;9677;50.656;13.064;2023-02-21T12:36:17;10.67;;;9.67;;
19089;SDS011;9677;50.656;13.064;2023-02-21T12:39:06;10.10;;;9.20;;
19089;SDS011;9677;50.656;13.064;2023-02-21T12:42:00;10.40;;;9.40;;
19089;SDS011;9677;50.656;13.064;2023-02-21T12:44:49;10.07;;;9.17;;
19089;SDS011;9677;50.656;13.064;2023-02-21T12:47:31;12.00;;;8.97;;
19089;SDS011;9677;50.656;13.064;2023-02-21T12:50:11;9.90;;;9.00;;
19089;SDS011;9677;50.656;13.064;2023-02-21T12:52:48;10.33;;;9.23;;
19089;SDS011;9677;50.656;13.064;2023-02-21T12:55:30;9.87;;;8.97;;
19089;SDS011;9677;50.656;13.064;2023-02-21T12:58:02;9.70;;;8.83;;
19089;SDS011;9677;50.656;13.064;2023-02-21T13:00:40;9.60;;;8.70;;
19089;SDS011;9677;50.656;13.064;2023-02-21T13:03:21;10.60;;;9.60;;
19089;SDS011;9677;50.656;13.064;2023-02-21T13:06:21;10.43;;;9.43;;
19089;SDS011;9677;50.656;13.064;2023-02-21T13:09:08;10.53;;;9.53;;
19089;SDS011;9677;50.656;13.064;2023-02-21T13:11:45;10.53;;;9.53;;
19089;SDS011;9677;50.656;13.064;2023-02-21T13:14:24;10.50;;;9.50;;
19089;SDS011;9677;50.656;13.064;2023-02-21T13:16:59;10.57;;;9.57;;
19089;SDS011;9677;50.656;13.064;2023-02-21T13:19:30;10.37;;;9.37;;
19089;SDS011;9677;50.656;13.064;2023-02-21T13:25:37;11.77;;;9.40;;
19089;SDS011;9677;50.656;13.064;2023-02-21T13:28:20;9.90;;;9.00;;
19089;SDS011;9677;50.656;13.064;2023-02-21T13:30:51;10.87;;;9.80;;
19089;SDS011;9677;50.656;13.064;2023-02-21T13:33:26;10.00;;;9.10;;
19089;SDS011;9677;50.656;13.064;2023-02-21T13:36:14;10.10;;;9.10;;
19089;SDS011;9677;50.656;13.064;2023-02-21T13:38:57;10.30;;;9.30;;
19089;SDS011;9677;50.656;13.064;2023-02-21T13:41:37;10.70;;;9.57;;
19089;SDS011;9677;50.656;13.064;2023-02-21T13:44:09;9.97;;;9.07;;
19089;SDS011;9677;50.656;13.064;2023-02-21T13:46:59;10.07;;;9.17;;
19089;SDS011;9677;50.656;13.064;2023-02-21T13:49:51;10.23;;;9.33;;
19089;SDS011;9677;50.656;13.064;2023-02-21T13:52:26;10.87;;;9.77;;
19089;SDS011;9677;50.656;13.064;2023-02-21T13:55:40;10.00;;;9.10;;
19089;SDS011;9677;50.656;13.064;2023-02-21T13:58:43;10.67;;;9.63;;
19089;SDS011;9677;50.656;13.064;2023-02-21T14:01:15;10.33;;;9.40;;
19089;SDS011;9677;50.656;13.064;2023-02-21T14:10:35;10.07;;;9.17;;
19089;SDS011;9677;50.656;13.064;2023-02-21T14:13:22;10.30;;;9.40;;
19089;SDS011;9677;50.656;13.064;2023-02-21T14:15:57;10.23;;;9.23;;
19089;SDS011;9677;50.656;13.064;2023-02-21T14:18:38;10.17;;;9.27;;
19089;SDS011;9677;50.656;13.064;2023-02-21T14:21:13;10.10;;;9.20;;
19089;SDS011;9677;50.656;13.064;2023-02-21T14:23:54;10.13;;;9.20;;
19089;SDS011;9677;50.656;13.064;2023-02-21T14:26:38;10.10;;;9.17;;
19089;SDS011;9677;50.656;13.064;2023-02-21T14:32:21;9.63;;;8.83;;
19089;SDS011;9677;50.656;13.064;2023-02-21T14:35:12;10.10;;;9.20;;
19089;SDS011;9677;50.656;13.064;2023-02-21T14:37:51;9.57;;;8.77;;
19089;SDS011;9677;50.656;13.064;2023-02-21T14:40:28;15.70;;;9.40;;
19089;SDS011;9677;50.656;13.064;2023-02-21T14:52:53;9.90;;;9.00;;
19089;SDS011;9677;50.656;13.064;2023-02-21T14:59:25;9.70;;;8.80;;
19089;SDS011;9677;50.656;13.064;2023-02-21T15:02:13;9.57;;;8.77;;
19089;SDS011;9677;50.656;13.064;2023-02-21T15:04:54;10.30;;;9.30;;
19089;SDS011;9677;50.656;13.064;2023-02-21T15:07:30;9.87;;;8.97;;
19089;SDS011;9677;50.656;13.064;2023-02-21T15:10:14;10.00;;;9.10;;
19089;SDS011;9677;50.656;13.064;2023-02-21T15:12:46;10.50;;;9.60;;
19089;SDS011;9677;50.656;13.064;2023-02-21T15:15:21;10.50;;;9.50;;
19089;SDS011;9677;50.656;13.064;2023-02-21T15:17:58;10.23;;;9.23;;
19089;SDS011;9677;50.656;13.064;2023-02-21T15:20:31;10.03;;;9.13;;
19089;SDS011;9677;50.656;13.064;2023-02-21T15:23:05;10.23;;;9.33;;
19089;SDS011;9677;50.656;13.064;2023-02-21T15:25:40;9.57;;;8.77;;
19089;SDS011;9677;50.656;13.064;2023-02-21T15:28:18;9.97;;;9.07;;
19089;SDS011;9677;50.656;13.064;2023-02-21T15:30:58;10.40;;;9.40;;
19089;SDS011;9677;50.656;13.064;2023-02-21T15:33:31;10.20;;;9.20;;
19089;SDS011;9677;50.656;13.064;2023-02-21T15:36:02;9.60;;;8.80;;
19089;SDS011;9677;50.656;13.064;2023-02-21T15:38:35;10.40;;;9.40;;
19089;SDS011;9677;50.656;13.064;2023-02-21T15:41:08;10.00;;;9.10;;
19089;SDS011;9677;50.656;13.064;2023-02-21T15:43:44;10.40;;;9.03;;
19089;SDS011;9677;50.656;13.064;2023-02-21T15:46:18;9.80;;;8.90;;
19089;SDS011;9677;50.656;13.064;2023-02-21T15:48:52;9.90;;;9.00;;
19089;SDS011;9677;50.656;13.064;2023-02-21T15:51:26;10.10;;;9.20;;
19089;SDS011;9677;50.656;13.064;2023-02-21T15:57:02;10.10;;;9.20;;
19089;SDS011;9677;50.656;13.064;2023-02-21T15:59:49;10.00;;;9.10;;
19089;SDS011;9677;50.656;13.064;2023-02-21T16:02:47;10.00;;;9.00;;
19089;SDS011;9677;50.656;13.064;2023-02-21T16:05:22;10.10;;;9.20;;